createdAt,value
2022-10-11T00:01:39.970Z,16.57
2022-10-11T00:04:06.659Z,16.55
2022-10-11T00:06:33.276Z,16.53
2022-10-11T00:08:59.787Z,16.50
2022-10-11T00:11:26.336Z,16.50
2022-10-11T00:13:52.876Z,16.46
2022-10-11T00:16:19.400Z,16.43
2022-10-11T00:18:45.993Z,16.44
2022-10-11T00:21:14.627Z,16.39
2022-10-11T00:23:42.035Z,16.37
2022-10-11T00:26:10.710Z,16.34
2022-10-11T00:28:37.897Z,16.30
2022-10-11T00:31:13.467Z,16.24
2022-10-11T00:33:40.144Z,16.22
2022-10-11T00:36:09.136Z,16.18
2022-10-11T00:38:36.255Z,16.12
2022-10-11T00:41:02.845Z,16.10
2022-10-11T00:43:31.046Z,16.09
2022-10-11T00:45:57.646Z,16.08
2022-10-11T00:48:44.679Z,16.08
2022-10-11T00:51:26.148Z,16.04
2022-10-11T00:53:53.767Z,16.01
2022-10-11T00:56:41.400Z,15.96
2022-10-11T00:59:14.650Z,15.98
2022-10-11T01:01:41.310Z,15.96
2022-10-11T01:04:07.943Z,15.94
2022-10-11T01:06:35.304Z,15.93
2022-10-11T01:09:02.330Z,15.93
2022-10-11T01:11:30.936Z,15.92
2022-10-11T01:14:03.282Z,15.90
2022-10-11T01:16:47.608Z,15.89
2022-10-11T01:19:26.209Z,15.86
2022-10-11T01:22:13.807Z,15.82
2022-10-11T01:25:14.405Z,15.80
2022-10-11T01:28:16.568Z,15.74
2022-10-11T01:30:43.926Z,15.73
2022-10-11T01:33:21.647Z,15.69
2022-10-11T01:36:22.117Z,15.66
2022-10-11T01:38:58.688Z,15.66
2022-10-11T01:41:31.043Z,15.67
2022-10-11T01:44:01.289Z,15.67
2022-10-11T01:46:32.184Z,15.61
2022-10-11T01:49:01.249Z,15.47
2022-10-11T01:51:32.997Z,15.32
2022-10-11T01:54:20.745Z,15.19
2022-10-11T01:56:52.914Z,15.08
2022-10-11T01:59:35.287Z,15.01
2022-10-11T02:02:35.893Z,14.94
2022-10-11T02:05:33.342Z,14.83
2022-10-11T02:08:08.788Z,14.76
2022-10-11T02:10:38.285Z,14.73
2022-10-11T02:13:27.009Z,14.63
2022-10-11T02:15:56.146Z,14.60
2022-10-11T02:18:26.708Z,14.56
2022-10-11T02:20:54.923Z,14.53
2022-10-11T02:23:26.832Z,14.48
2022-10-11T02:25:55.117Z,14.44
2022-10-11T02:28:28.265Z,14.40
2022-10-11T02:30:56.758Z,14.35
2022-10-11T02:33:36.014Z,14.31
2022-10-11T02:36:08.645Z,14.30
2022-10-11T02:38:47.879Z,14.27
2022-10-11T02:41:31.098Z,14.21
2022-10-11T02:44:06.531Z,14.17
2022-10-11T02:46:34.181Z,14.15
2022-10-11T02:49:01.167Z,14.10
2022-10-11T02:51:30.902Z,14.03
2022-10-11T02:53:57.877Z,14.01
2022-10-11T02:56:24.480Z,14.01
2022-10-11T02:58:51.056Z,13.99
2022-10-11T03:01:17.643Z,13.91
2022-10-11T03:03:44.763Z,13.90
2022-10-11T03:06:11.427Z,13.87
2022-10-11T03:08:37.986Z,13.83
2022-10-11T03:11:04.676Z,13.84
2022-10-11T03:13:31.179Z,13.79
2022-10-11T03:16:03.243Z,13.73
2022-10-11T03:18:31.427Z,13.71
2022-10-11T03:20:57.954Z,13.67
2022-10-11T03:23:24.503Z,13.61
2022-10-11T03:25:52.181Z,13.59
2022-10-11T03:28:19.341Z,13.59
2022-10-11T03:30:49.819Z,13.59
2022-10-11T03:33:17.260Z,13.59
2022-10-11T03:35:45.676Z,13.56
2022-10-11T03:38:18.912Z,13.52
2022-10-11T03:40:45.613Z,13.48
2022-10-11T03:43:12.363Z,13.43
2022-10-11T03:45:39.334Z,13.37
2022-10-11T03:48:06.166Z,13.32
2022-10-11T03:50:32.684Z,13.30
2022-10-11T03:52:59.410Z,13.25
2022-10-11T03:55:26.216Z,13.22
2022-10-11T03:57:52.822Z,13.16
2022-10-11T04:00:19.842Z,13.11
2022-10-11T04:02:46.724Z,13.09
2022-10-11T04:05:13.423Z,13.03
2022-10-11T04:07:40.242Z,13.00
2022-10-11T04:10:07.561Z,12.98
2022-10-11T04:12:34.824Z,12.94
2022-10-11T04:15:01.361Z,12.90
2022-10-11T04:17:27.903Z,12.89
2022-10-11T04:19:54.430Z,12.89
2022-10-11T04:22:21.100Z,12.88
2022-10-11T04:24:47.652Z,12.82
2022-10-11T04:27:14.184Z,12.79
2022-10-11T04:29:40.732Z,12.78
2022-10-11T04:32:07.344Z,12.81
2022-10-11T04:34:34.066Z,12.84
2022-10-11T04:37:00.578Z,12.82
2022-10-11T04:39:27.156Z,12.79
2022-10-11T04:41:53.754Z,12.76
2022-10-11T04:44:20.298Z,12.75
2022-10-11T04:46:46.835Z,12.76
2022-10-11T04:49:13.379Z,12.78
2022-10-11T04:51:40.090Z,12.80
2022-10-11T04:54:06.656Z,12.92
2022-10-11T04:56:33.336Z,13.24
2022-10-11T04:58:59.999Z,13.68
2022-10-11T05:01:26.625Z,13.82
2022-10-11T05:03:53.149Z,13.93
2022-10-11T05:06:19.971Z,14.03
2022-10-11T05:08:46.668Z,14.30
2022-10-11T05:11:16.125Z,14.48
2022-10-11T05:13:43.998Z,14.48
2022-10-11T05:16:12.017Z,14.47
2022-10-11T05:18:39.681Z,14.52
2022-10-11T05:21:08.070Z,14.49
2022-10-11T05:23:35.875Z,14.45
2022-10-11T05:26:03.364Z,14.40
2022-10-11T05:28:30.287Z,14.41
2022-10-11T05:30:56.810Z,14.37
2022-10-11T05:33:23.626Z,14.10
2022-10-11T05:35:50.355Z,14.26
2022-10-11T05:38:16.936Z,14.45
2022-10-11T05:40:43.677Z,14.59
2022-10-11T05:43:10.334Z,14.69
2022-10-11T05:45:42.111Z,14.82
2022-10-11T05:48:09.460Z,14.80
2022-10-11T05:50:36.683Z,14.64
2022-10-11T05:53:04.299Z,14.48
2022-10-11T05:55:35.064Z,14.32
2022-10-11T05:58:01.664Z,13.98
2022-10-11T06:00:28.239Z,13.98
2022-10-11T06:02:54.807Z,14.15
2022-10-11T06:05:21.541Z,13.99
2022-10-11T06:07:48.187Z,14.01
2022-10-11T06:10:14.735Z,14.02
2022-10-11T06:12:41.271Z,14.05
2022-10-11T06:15:08.834Z,14.19
2022-10-11T06:17:35.405Z,13.99
2022-10-11T06:20:01.998Z,13.65
2022-10-11T06:22:28.552Z,13.39
2022-10-11T06:24:55.127Z,13.24
2022-10-11T06:27:21.702Z,13.11
2022-10-11T06:29:48.332Z,13.00
2022-10-11T06:32:15.012Z,12.86
2022-10-11T06:34:41.618Z,12.78
2022-10-11T06:37:08.405Z,12.74
2022-10-11T06:39:35.107Z,12.73
2022-10-11T06:42:01.906Z,12.70
2022-10-11T06:44:28.576Z,12.71
2022-10-11T06:46:55.111Z,12.71
2022-10-11T06:49:23.503Z,12.74
2022-10-11T06:51:50.867Z,12.75
2022-10-11T06:54:17.438Z,12.75
2022-10-11T06:56:45.661Z,12.77
2022-10-11T06:59:13.495Z,12.79
2022-10-11T07:01:40.266Z,12.78
2022-10-11T07:04:07.208Z,12.81
2022-10-11T07:06:36.999Z,12.73
2022-10-11T07:09:04.398Z,12.65
2022-10-11T07:11:31.086Z,12.63
2022-10-11T07:14:00.347Z,12.60
2022-10-11T07:16:28.518Z,12.55
2022-10-11T07:19:00.462Z,12.50
2022-10-11T07:21:28.568Z,12.51
2022-10-11T07:23:55.168Z,12.51
2022-10-11T07:26:21.723Z,12.54
2022-10-11T07:28:48.437Z,12.56
2022-10-11T07:31:21.812Z,12.55
2022-10-11T07:33:48.415Z,12.53
2022-10-11T07:36:15.206Z,12.61
2022-10-11T07:38:43.618Z,12.64
2022-10-11T07:41:10.570Z,12.62
2022-10-11T07:43:38.152Z,12.64
2022-10-11T07:46:06.015Z,12.68
2022-10-11T07:48:34.556Z,12.70
2022-10-11T07:51:21.877Z,12.73
2022-10-11T07:53:53.537Z,12.87
2022-10-11T07:56:22.495Z,12.97
2022-10-11T07:58:57.245Z,12.99
2022-10-11T08:01:24.823Z,13.06
2022-10-11T08:03:51.967Z,13.16
2022-10-11T08:06:22.294Z,13.22
2022-10-11T08:08:49.234Z,13.31
2022-10-11T08:11:24.826Z,13.45
2022-10-11T08:13:51.990Z,13.58
2022-10-11T08:16:19.757Z,13.72
2022-10-11T08:18:46.374Z,13.83
2022-10-11T08:21:15.610Z,13.96
2022-10-11T08:23:42.446Z,14.07
2022-10-11T08:26:09.976Z,14.09
2022-10-11T08:28:37.148Z,14.10
2022-10-11T08:31:04.294Z,14.11
2022-10-11T08:33:31.211Z,14.19
2022-10-11T08:35:58.445Z,14.26
2022-10-11T08:38:25.044Z,14.21
2022-10-11T08:40:57.184Z,14.20
2022-10-11T08:43:29.783Z,14.15
2022-10-11T08:45:59.197Z,14.16
2022-10-11T08:48:38.448Z,14.18
2022-10-11T08:51:19.434Z,14.31
2022-10-11T08:53:53.837Z,14.44
2022-10-11T08:56:21.619Z,14.52
2022-10-11T08:59:03.149Z,14.58
2022-10-11T09:01:31.731Z,14.68
2022-10-11T09:04:00.089Z,14.76
2022-10-11T09:07:07.377Z,14.76
2022-10-11T09:09:42.999Z,14.78
2022-10-11T09:12:14.441Z,14.77
2022-10-11T09:14:47.116Z,14.77
2022-10-11T09:17:20.478Z,14.73
2022-10-11T09:20:02.288Z,14.68
2022-10-11T09:22:57.006Z,14.71
2022-10-11T09:25:44.447Z,14.78
2022-10-11T09:28:42.126Z,14.80
2022-10-11T09:31:11.053Z,14.76
2022-10-11T09:33:38.938Z,14.69
2022-10-11T09:36:20.253Z,14.60
2022-10-11T09:38:53.725Z,14.54
2022-10-11T09:41:42.096Z,14.52
2022-10-11T09:44:19.940Z,14.58
2022-10-11T09:46:48.892Z,14.68
2022-10-11T09:49:18.503Z,14.79
2022-10-11T09:51:51.222Z,14.88
2022-10-11T09:54:18.820Z,14.99
2022-10-11T09:56:46.130Z,15.17
2022-10-11T09:59:30.804Z,15.33
2022-10-11T10:02:12.690Z,15.41
2022-10-11T10:04:57.384Z,15.46
2022-10-11T10:07:24.413Z,15.51
2022-10-11T10:09:52.834Z,15.60
2022-10-11T10:12:30.428Z,15.64
2022-10-11T10:15:19.499Z,15.70
2022-10-11T10:17:53.353Z,15.87
2022-10-11T10:20:27.468Z,15.96
2022-10-11T10:22:54.236Z,16.02
2022-10-11T10:25:25.673Z,16.05
2022-10-11T10:28:00.907Z,16.16
2022-10-11T10:30:31.817Z,16.31
2022-10-11T10:33:06.203Z,16.40
2022-10-11T10:35:45.491Z,16.58
2022-10-11T10:38:17.162Z,16.82
2022-10-11T10:40:54.087Z,17.02
2022-10-11T10:43:24.065Z,17.11
2022-10-11T10:46:09.881Z,17.14
2022-10-11T10:51:52.974Z,17.06
2022-10-11T10:54:40.878Z,16.94
2022-10-11T10:57:20.311Z,16.88
2022-10-11T11:00:02.828Z,16.81
2022-10-11T11:02:41.913Z,16.85
2022-10-11T11:05:27.459Z,17.03
2022-10-11T11:08:12.975Z,17.13
2022-10-11T11:10:51.219Z,17.16
2022-10-11T11:13:36.669Z,17.23
2022-10-11T11:16:30.963Z,17.23
2022-10-11T11:19:00.473Z,17.24
2022-10-11T11:21:41.762Z,17.29
2022-10-11T11:24:43.579Z,17.34
2022-10-11T11:27:43.355Z,17.27
2022-10-11T11:30:15.407Z,17.18
2022-10-11T11:33:00.362Z,17.21
2022-10-11T11:35:41.371Z,17.29
2022-10-11T11:38:33.080Z,17.21
2022-10-11T11:41:02.711Z,17.06
2022-10-11T11:43:36.651Z,16.97
2022-10-11T11:46:11.831Z,16.97
2022-10-11T11:48:39.222Z,17.08
2022-10-11T11:51:11.517Z,17.22
2022-10-11T11:53:52.936Z,17.24
2022-10-11T11:56:26.774Z,17.26
2022-10-11T11:59:06.490Z,17.26
2022-10-11T12:01:36.143Z,17.23
2022-10-11T12:04:14.587Z,17.21
2022-10-11T12:07:04.103Z,17.35
2022-10-11T12:09:29.503Z,17.47
2022-10-11T12:11:59.722Z,17.55
2022-10-11T12:14:32.027Z,17.62
2022-10-11T12:17:12.652Z,17.73
2022-10-11T12:19:42.231Z,17.83
2022-10-11T12:22:36.691Z,17.94
2022-10-11T12:25:09.305Z,18.10
2022-10-11T12:27:38.438Z,18.19
2022-10-11T12:30:42.803Z,18.19
2022-10-11T12:33:32.850Z,18.10
2022-10-11T12:36:20.898Z,18.08
2022-10-11T12:39:07.420Z,18.08
2022-10-11T12:41:50.039Z,18.11
2022-10-11T12:44:22.997Z,18.17
2022-10-11T12:46:55.710Z,18.17
2022-10-11T12:49:40.653Z,18.29
2022-10-11T12:52:16.185Z,18.34
2022-10-11T12:55:03.982Z,18.46
2022-10-11T12:57:33.543Z,18.61
2022-10-11T13:00:29.215Z,18.72
2022-10-11T13:02:58.045Z,18.79
2022-10-11T13:05:47.706Z,18.83
2022-10-11T13:08:30.426Z,18.96
2022-10-11T13:11:01.307Z,19.06
2022-10-11T13:13:57.960Z,19.19
2022-10-11T13:16:41.913Z,19.37
2022-10-11T13:19:13.527Z,19.61
2022-10-11T13:21:40.735Z,19.88
2022-10-11T13:24:14.900Z,20.12
2022-10-11T13:26:43.069Z,20.33
2022-10-11T13:29:54.441Z,20.65
2022-10-11T13:32:26.440Z,21.15
2022-10-11T13:37:30.152Z,21.94
2022-10-11T13:39:57.675Z,22.16
2022-10-11T13:42:30.899Z,22.37
2022-10-11T13:44:58.343Z,22.62
2022-10-11T13:47:28.208Z,22.95
2022-10-11T13:50:11.265Z,23.09
2022-10-11T13:52:54.229Z,22.92
2022-10-11T13:55:44.579Z,22.46
2022-10-11T13:58:20.669Z,22.24
2022-10-11T14:00:56.652Z,22.36
2022-10-11T14:03:26.056Z,22.46
2022-10-11T14:05:56.307Z,22.23
2022-10-11T14:08:42.594Z,22.00
2022-10-11T14:11:12.268Z,21.74
2022-10-11T14:13:49.955Z,21.71
2022-10-11T14:16:16.417Z,21.92
2022-10-11T14:18:48.993Z,22.07
2022-10-11T14:21:24.032Z,22.39
2022-10-11T14:23:55.468Z,22.56
2022-10-11T14:26:23.804Z,22.83
2022-10-11T14:28:59.048Z,23.00
2022-10-11T14:31:26.994Z,23.43
2022-10-11T14:33:55.030Z,23.73
2022-10-11T14:36:23.019Z,24.02
2022-10-11T14:38:50.722Z,24.21
2022-10-11T14:41:17.632Z,24.26
2022-10-11T14:43:44.305Z,24.31
2022-10-11T14:46:23.406Z,24.49
2022-10-11T14:48:55.650Z,24.93
2022-10-11T14:51:28.023Z,25.04
2022-10-11T14:53:54.809Z,25.08
2022-10-11T14:56:21.907Z,25.13
2022-10-11T14:58:49.113Z,24.98
2022-10-11T15:01:16.936Z,24.88
2022-10-11T15:03:43.626Z,24.90
2022-10-11T15:06:20.674Z,24.96
2022-10-11T15:08:47.867Z,25.14
2022-10-11T15:11:17.000Z,25.12
2022-10-11T15:13:43.830Z,25.17
2022-10-11T15:16:12.721Z,25.19
2022-10-11T15:18:40.004Z,25.06
2022-10-11T15:21:06.979Z,24.87
2022-10-11T15:23:33.687Z,24.84
2022-10-11T15:26:00.450Z,24.90
2022-10-11T15:28:30.669Z,24.96
2022-10-11T15:30:58.234Z,24.95
2022-10-11T15:33:25.302Z,24.87
2022-10-11T15:35:52.202Z,24.76
2022-10-11T15:38:22.211Z,24.61
2022-10-11T15:40:49.790Z,24.03
2022-10-11T15:43:20.772Z,23.15
2022-10-11T15:45:50.383Z,22.33
2022-10-11T15:48:21.271Z,21.64
2022-10-11T15:50:49.707Z,21.01
2022-10-11T15:53:26.226Z,20.47
2022-10-11T15:55:54.152Z,19.95
2022-10-11T15:58:33.649Z,19.50
2022-10-11T16:01:06.099Z,19.22
2022-10-11T16:03:33.729Z,18.98
2022-10-11T16:06:05.170Z,18.79
2022-10-11T16:08:32.825Z,18.58
2022-10-11T16:11:00.068Z,18.43
2022-10-11T16:13:26.677Z,18.28
2022-10-11T16:15:53.290Z,18.17
2022-10-11T16:18:21.153Z,18.03
2022-10-11T16:20:51.049Z,17.92
2022-10-11T16:23:18.631Z,17.77
2022-10-11T16:25:45.291Z,17.62
2022-10-11T16:28:12.003Z,17.47
2022-10-11T16:30:43.055Z,17.34
2022-10-11T16:33:09.935Z,17.19
2022-10-11T16:35:36.958Z,17.08
2022-10-11T16:38:03.512Z,16.96
2022-10-11T16:40:30.183Z,16.84
2022-10-11T16:42:56.862Z,16.70
2022-10-11T16:45:23.540Z,16.56
2022-10-11T16:47:50.407Z,16.45
2022-10-11T16:50:16.957Z,16.33
2022-10-11T16:52:43.553Z,16.24
2022-10-11T16:55:10.477Z,16.13
2022-10-11T16:57:37.847Z,16.03
2022-10-11T17:00:07.934Z,15.96
2022-10-11T17:02:35.077Z,15.88
2022-10-11T17:05:01.978Z,15.72
2022-10-11T17:07:28.655Z,15.69
2022-10-11T17:09:55.315Z,15.61
2022-10-11T17:12:24.520Z,15.53
2022-10-11T17:14:51.501Z,15.43
2022-10-11T17:17:18.767Z,15.35
2022-10-11T17:19:45.738Z,15.28
2022-10-11T17:22:14.922Z,15.18
2022-10-11T17:24:41.847Z,15.11
2022-10-11T17:27:09.245Z,15.03
2022-10-11T17:29:36.337Z,14.92
2022-10-11T17:32:03.252Z,14.80
2022-10-11T17:34:29.838Z,14.70
2022-10-11T17:36:56.433Z,14.60
2022-10-11T17:39:23.735Z,14.46
2022-10-11T17:41:50.901Z,14.36
2022-10-11T17:44:18.609Z,14.25
2022-10-11T17:46:45.787Z,14.15
2022-10-11T17:49:12.887Z,14.09
2022-10-11T17:51:40.207Z,13.99
2022-10-11T17:54:12.285Z,13.94
2022-10-11T17:56:42.627Z,13.88
2022-10-11T17:59:15.934Z,13.80
2022-10-11T18:01:43.408Z,13.79
2022-10-11T18:04:16.709Z,13.75
2022-10-11T18:06:45.942Z,13.69
2022-10-11T18:09:14.559Z,13.61
2022-10-11T18:11:41.263Z,13.55
2022-10-11T18:14:07.867Z,13.49
2022-10-11T18:16:36.297Z,13.47
2022-10-11T18:19:05.782Z,13.40
2022-10-11T18:21:34.653Z,13.34
2022-10-11T18:24:04.079Z,13.30
2022-10-11T18:26:31.228Z,13.25
2022-10-11T18:28:58.709Z,13.22
2022-10-11T18:31:27.708Z,13.18
2022-10-11T18:33:55.124Z,13.15
2022-10-11T18:36:24.927Z,13.12
2022-10-11T18:38:58.350Z,13.07
2022-10-11T18:41:30.688Z,13.04
2022-10-11T18:44:03.871Z,13.01
2022-10-11T18:46:30.805Z,12.99
2022-10-11T18:48:58.371Z,12.95
2022-10-11T18:51:28.372Z,12.91
2022-10-11T18:53:55.588Z,12.88
2022-10-11T18:56:24.669Z,12.83
2022-10-11T18:58:53.496Z,12.79
2022-10-11T19:01:24.238Z,12.74
2022-10-11T19:03:54.381Z,12.74
2022-10-11T19:06:23.632Z,12.71
2022-10-11T19:09:04.804Z,12.67
2022-10-11T19:11:31.903Z,12.65
2022-10-11T19:14:11.190Z,12.55
2022-10-11T19:16:51.249Z,12.52
2022-10-11T19:19:20.197Z,12.50
2022-10-11T19:21:48.714Z,12.46
2022-10-11T19:24:20.408Z,12.42
2022-10-11T19:26:47.906Z,12.38
2022-10-11T19:29:20.336Z,12.34
2022-10-11T19:31:49.950Z,12.31
2022-10-11T19:34:16.806Z,12.27
2022-10-11T19:36:43.756Z,12.22
2022-10-11T19:39:14.779Z,12.15
2022-10-11T19:41:42.613Z,12.11
2022-10-11T19:44:09.757Z,12.08
2022-10-11T19:46:53.019Z,12.05
2022-10-11T19:49:24.031Z,12.01
2022-10-11T19:51:51.015Z,11.98
2022-10-11T19:54:17.972Z,11.94
2022-10-11T19:56:44.864Z,11.87
2022-10-11T19:59:12.698Z,11.84
2022-10-11T20:01:40.173Z,11.81
2022-10-11T20:04:22.626Z,11.77
2022-10-11T20:06:54.299Z,11.71
2022-10-11T20:09:29.973Z,11.68
2022-10-11T20:11:57.412Z,11.62
2022-10-11T20:14:24.380Z,11.60
2022-10-11T20:16:51.306Z,11.57
2022-10-11T20:19:18.081Z,11.57
2022-10-11T20:21:45.133Z,11.54
2022-10-11T20:24:12.552Z,11.51
2022-10-11T20:26:39.695Z,11.49
2022-10-11T20:29:06.850Z,11.47
2022-10-11T20:31:34.975Z,11.43
2022-10-11T20:34:04.281Z,11.38
2022-10-11T20:36:31.827Z,11.35
2022-10-11T20:38:59.350Z,11.31
2022-10-11T20:41:29.105Z,11.25
2022-10-11T20:43:56.989Z,11.20
2022-10-11T20:46:26.806Z,11.15
2022-10-11T20:49:01.202Z,11.12
2022-10-11T20:51:29.106Z,11.11
2022-10-11T20:53:56.439Z,11.11
2022-10-11T20:56:23.329Z,11.09
2022-10-11T20:58:55.134Z,11.05
2022-10-11T21:01:24.380Z,11.03
2022-10-11T21:03:50.914Z,11.02
2022-10-11T21:06:17.678Z,11.01
2022-10-11T21:08:44.601Z,10.98
2022-10-11T21:11:11.824Z,10.97
2022-10-11T21:13:38.413Z,10.95
2022-10-11T21:16:15.941Z,10.94
2022-10-11T21:18:42.705Z,10.94
2022-10-11T21:21:11.463Z,10.93
2022-10-11T21:23:38.531Z,10.91
2022-10-11T21:26:07.624Z,10.90
2022-10-11T21:28:34.601Z,10.87
2022-10-11T21:31:04.847Z,10.85
2022-10-11T21:33:31.743Z,10.83
2022-10-11T21:35:58.482Z,10.81
2022-10-11T21:38:25.177Z,10.80
2022-10-11T21:40:51.879Z,10.80
2022-10-11T21:43:18.392Z,10.78
2022-10-11T21:45:45.881Z,10.76
2022-10-11T21:48:12.406Z,10.72
2022-10-11T21:50:38.948Z,10.68
2022-10-11T21:53:05.596Z,10.64
2022-10-11T21:55:32.154Z,10.59
2022-10-11T21:57:58.774Z,10.54
2022-10-11T22:00:25.420Z,10.51
2022-10-11T22:02:52.247Z,10.50
2022-10-11T22:05:18.837Z,10.49
2022-10-11T22:07:45.630Z,10.50
2022-10-11T22:10:12.143Z,10.52
2022-10-11T22:12:38.784Z,10.54
2022-10-11T22:15:05.972Z,10.54
2022-10-11T22:17:32.503Z,10.56
2022-10-11T22:19:59.046Z,10.56
2022-10-11T22:22:25.652Z,10.55
2022-10-11T22:24:52.182Z,10.55
2022-10-11T22:27:18.807Z,10.53
2022-10-11T22:29:45.366Z,10.50
2022-10-11T22:32:11.891Z,10.49
2022-10-11T22:34:38.409Z,10.45
2022-10-11T22:37:04.976Z,10.42
2022-10-11T22:39:31.508Z,10.39
2022-10-11T22:41:58.018Z,10.35
2022-10-11T22:44:24.708Z,10.31
2022-10-11T22:46:51.203Z,10.29
2022-10-11T22:49:17.728Z,10.25
2022-10-11T22:51:44.570Z,10.20
2022-10-11T22:54:11.510Z,10.18
2022-10-11T22:56:38.039Z,10.18
2022-10-11T22:59:04.626Z,10.18
2022-10-11T23:01:31.186Z,10.15
2022-10-11T23:03:57.845Z,10.12
2022-10-11T23:06:24.431Z,10.10
2022-10-11T23:08:51.006Z,10.06
2022-10-11T23:11:18.112Z,10.02
2022-10-11T23:13:44.707Z,10.00
2022-10-11T23:16:12.789Z,9.98
2022-10-11T23:18:39.836Z,9.99
2022-10-11T23:21:07.398Z,9.99
2022-10-11T23:23:34.095Z,9.97
2022-10-11T23:26:09.367Z,9.97
2022-10-11T23:28:36.460Z,9.95
2022-10-11T23:31:18.001Z,9.94
2022-10-11T23:33:46.258Z,9.96
2022-10-11T23:36:15.112Z,9.98
2022-10-11T23:38:41.799Z,9.98
2022-10-11T23:41:08.327Z,9.96
2022-10-11T23:43:34.874Z,9.94
2022-10-11T23:46:01.527Z,9.93
2022-10-11T23:48:28.031Z,9.92
2022-10-11T23:50:54.558Z,9.89
2022-10-11T23:53:21.122Z,9.87
2022-10-11T23:55:47.697Z,9.85
2022-10-11T23:58:14.275Z,9.84
